createdAt,value
2022-11-26T00:04:18.623Z,19.90
2022-11-26T00:09:25.387Z,21.20
2022-11-26T00:14:28.835Z,19.90
2022-11-26T00:19:32.143Z,20.60
2022-11-26T00:24:35.770Z,20.10
2022-11-26T00:29:39.477Z,20.50
2022-11-26T00:34:43.198Z,18.40
2022-11-26T00:39:47.532Z,19.10
2022-11-26T00:44:50.949Z,21.80
2022-11-26T00:49:54.462Z,20.30
2022-11-26T00:54:57.975Z,21.80
2022-11-26T01:00:01.500Z,18.90
2022-11-26T01:05:05.419Z,17.20
2022-11-26T01:10:16.204Z,18.70
2022-11-26T01:15:22.279Z,18.90
2022-11-26T01:20:29.542Z,19.60
2022-11-26T01:25:33.104Z,18.60
2022-11-26T01:30:36.715Z,18.60
2022-11-26T01:35:40.232Z,17.20
2022-11-26T01:40:56.757Z,17.50
2022-11-26T01:46:00.313Z,18.70
2022-11-26T01:51:08.837Z,14.10
2022-11-26T01:56:20.156Z,18.30
2022-11-26T02:01:23.919Z,18.40
2022-11-26T02:06:32.635Z,19.50
2022-11-26T02:11:36.790Z,19.10
2022-11-26T02:17:01.130Z,19.70
2022-11-26T02:22:29.593Z,18.00
2022-11-26T02:27:58.710Z,13.30
2022-11-26T02:33:15.128Z,15.30
2022-11-26T02:38:25.083Z,13.80
2022-11-26T02:43:29.334Z,15.30
2022-11-26T02:48:37.247Z,14.90
2022-11-26T02:53:42.706Z,16.30
2022-11-26T02:58:46.529Z,15.80
2022-11-26T03:03:53.353Z,16.00
2022-11-26T03:08:57.143Z,15.80
2022-11-26T03:14:00.661Z,16.30
2022-11-26T03:19:04.174Z,18.00
2022-11-26T03:24:08.001Z,16.70
2022-11-26T03:29:11.311Z,18.90
2022-11-26T03:34:15.028Z,20.20
2022-11-26T03:39:18.749Z,18.90
2022-11-26T03:44:22.265Z,22.10
2022-11-26T03:49:25.677Z,19.50
2022-11-26T03:54:29.500Z,19.10
2022-11-26T03:59:32.914Z,17.70
2022-11-26T04:04:36.652Z,16.30
2022-11-26T04:09:40.459Z,14.00
2022-11-26T04:14:43.912Z,20.30
2022-11-26T04:19:47.388Z,17.80
2022-11-26T04:24:50.901Z,19.00
2022-11-26T04:29:54.521Z,20.00
2022-11-26T04:34:58.035Z,18.90
2022-11-26T04:40:01.858Z,19.50
2022-11-26T04:45:06.089Z,19.90
2022-11-26T04:50:10.530Z,16.80
2022-11-26T04:55:14.045Z,19.10
2022-11-26T05:00:18.505Z,18.50
2022-11-26T05:05:21.893Z,18.10
2022-11-26T05:10:26.025Z,19.00
2022-11-26T05:15:29.538Z,15.50
2022-11-26T05:20:33.056Z,17.90
2022-11-26T05:25:36.671Z,20.10
2022-11-26T05:30:40.084Z,18.30
2022-11-26T05:35:43.600Z,18.30
2022-11-26T05:40:49.674Z,15.20
2022-11-26T05:45:53.231Z,13.40
2022-11-26T05:51:01.112Z,19.10
2022-11-26T05:56:04.933Z,18.40
2022-11-26T06:01:09.573Z,17.10
2022-11-26T06:06:12.900Z,18.30
2022-11-26T06:11:16.448Z,17.60
2022-11-26T06:16:19.938Z,18.30
2022-11-26T06:21:23.367Z,15.20
2022-11-26T06:26:27.189Z,18.90
2022-11-26T06:31:30.636Z,17.30
2022-11-26T06:36:34.055Z,18.40
2022-11-26T06:41:37.468Z,17.90
2022-11-26T06:46:40.818Z,13.00
2022-11-26T06:51:44.089Z,21.90
2022-11-26T06:56:47.809Z,19.80
2022-11-26T07:01:51.924Z,17.20
2022-11-26T07:06:55.438Z,17.30
2022-11-26T07:11:59.069Z,21.30
2022-11-26T07:17:02.706Z,19.20
2022-11-26T07:22:06.500Z,22.70
2022-11-26T07:27:09.948Z,22.30
2022-11-26T07:32:13.707Z,23.90
2022-11-26T07:37:17.470Z,17.80
2022-11-26T07:42:20.808Z,21.20
2022-11-26T07:47:24.301Z,20.90
2022-11-26T07:52:27.677Z,17.50
2022-11-26T07:57:31.079Z,23.20
2022-11-26T08:02:34.506Z,21.20
2022-11-26T08:07:37.910Z,25.00
2022-11-26T08:12:41.254Z,27.20
2022-11-26T08:17:44.605Z,24.00
2022-11-26T08:22:48.027Z,22.70
2022-11-26T08:27:51.371Z,21.10
2022-11-26T08:32:54.625Z,21.60
2022-11-26T08:37:58.057Z,21.80
2022-11-26T08:43:01.415Z,21.30
2022-11-26T08:48:04.968Z,19.00
2022-11-26T08:53:08.296Z,20.30
2022-11-26T08:58:11.670Z,22.10
2022-11-26T09:03:15.035Z,21.50
2022-11-26T09:08:18.374Z,23.20
2022-11-26T09:13:22.379Z,19.20
2022-11-26T09:18:25.695Z,18.30
2022-11-26T09:23:29.292Z,18.10
2022-11-26T09:28:32.626Z,18.80
2022-11-26T09:33:35.951Z,15.80
2022-11-26T09:38:40.030Z,16.20
2022-11-26T09:44:23.336Z,16.10
2022-11-26T09:49:30.478Z,15.00
2022-11-26T09:54:34.380Z,12.20
2022-11-26T09:59:39.315Z,12.00
2022-11-26T10:04:42.948Z,13.40
2022-11-26T10:10:07.070Z,12.50
2022-11-26T10:15:25.113Z,10.70
2022-11-26T10:20:37.731Z,11.70
2022-11-26T10:25:48.617Z,11.20
2022-11-26T10:30:58.201Z,12.00
2022-11-26T10:36:04.073Z,10.70
2022-11-26T10:41:07.354Z,13.70
2022-11-26T10:46:34.186Z,11.90
2022-11-26T10:51:37.927Z,12.60
2022-11-26T10:56:47.034Z,14.10
2022-11-26T11:01:54.316Z,15.10
2022-11-26T11:06:59.496Z,15.10
2022-11-26T11:12:08.878Z,16.60
2022-11-26T11:17:40.080Z,16.00
2022-11-26T11:22:46.029Z,16.40
2022-11-26T11:27:50.047Z,18.70
2022-11-26T11:32:57.719Z,18.10
2022-11-26T11:38:01.337Z,16.90
2022-11-26T11:43:07.906Z,19.00
2022-11-26T11:48:48.948Z,19.80
2022-11-26T11:54:20.710Z,18.30
2022-11-26T11:59:47.823Z,19.40
2022-11-26T12:05:23.101Z,19.00
2022-11-26T12:10:52.673Z,18.00
2022-11-26T12:16:03.328Z,24.20
2022-11-26T12:21:16.426Z,20.80
2022-11-26T12:26:37.357Z,18.90
2022-11-26T12:31:54.128Z,18.10
2022-11-26T12:37:06.871Z,17.70
2022-11-26T12:43:10.175Z,20.10
2022-11-26T12:48:41.470Z,23.10
2022-11-26T12:54:34.842Z,19.30
2022-11-26T12:59:48.970Z,19.80
2022-11-26T13:04:54.758Z,18.20
2022-11-26T13:10:54.760Z,16.60
2022-11-26T13:26:25.701Z,16.30
2022-11-26T13:32:12.736Z,17.30
2022-11-26T13:37:36.946Z,15.40
2022-11-26T13:42:55.173Z,18.20
2022-11-26T13:48:08.746Z,18.00
2022-11-26T13:53:26.958Z,19.00
2022-11-26T13:58:35.442Z,18.60
2022-11-26T14:03:49.503Z,17.50
2022-11-26T14:08:54.161Z,18.60
2022-11-26T14:14:25.615Z,20.40
2022-11-26T14:19:49.234Z,19.20
2022-11-26T14:24:53.740Z,19.00
2022-11-26T14:30:09.299Z,18.50
2022-11-26T14:35:32.460Z,19.00
2022-11-26T14:40:39.012Z,16.80
2022-11-26T14:50:52.689Z,19.00
2022-11-26T14:55:57.360Z,19.30
2022-11-26T15:01:08.629Z,20.10
2022-11-26T15:06:42.877Z,20.20
2022-11-26T15:11:57.342Z,20.60
2022-11-26T15:17:05.674Z,20.50
2022-11-26T15:22:42.869Z,18.30
2022-11-26T15:27:52.222Z,15.50
2022-11-26T15:33:14.682Z,15.00
2022-11-26T15:38:20.688Z,16.10
2022-11-26T15:43:49.464Z,24.30
2022-11-26T15:48:57.316Z,27.10
2022-11-26T15:54:02.845Z,25.10
2022-11-26T15:59:14.966Z,23.40
2022-11-26T16:04:34.041Z,23.80
2022-11-26T16:09:37.249Z,23.40
2022-11-26T16:14:40.903Z,23.10
2022-11-26T16:19:57.806Z,24.60
2022-11-26T16:25:19.641Z,24.00
2022-11-26T16:30:22.954Z,23.40
2022-11-26T16:35:44.620Z,18.80
2022-11-26T16:40:50.057Z,28.40
2022-11-26T16:56:02.138Z,21.50
2022-11-26T17:01:05.559Z,20.70
2022-11-26T17:06:35.078Z,21.90
2022-11-26T17:11:38.488Z,20.50
2022-11-26T17:16:41.992Z,66.00
2022-11-26T17:21:45.520Z,17.20
2022-11-26T17:26:48.937Z,20.00
2022-11-26T17:31:52.350Z,27.00
2022-11-26T17:37:00.060Z,24.20
2022-11-26T17:42:03.677Z,24.90
2022-11-26T17:47:17.313Z,20.80
2022-11-26T17:52:23.204Z,24.20
2022-11-26T17:57:28.564Z,26.70
2022-11-26T18:02:31.930Z,23.70
2022-11-26T18:07:36.783Z,22.60
2022-11-26T18:12:41.233Z,22.20
2022-11-26T18:17:51.122Z,25.70
2022-11-26T18:22:56.566Z,19.10
2022-11-26T18:27:59.892Z,26.30
2022-11-26T18:33:03.409Z,31.50
2022-11-26T18:38:09.896Z,36.10
2022-11-26T18:43:13.306Z,36.40
2022-11-26T18:48:16.722Z,34.30
2022-11-26T18:53:20.032Z,36.80
2022-11-26T18:58:24.573Z,40.00
2022-11-26T19:03:28.701Z,41.00
2022-11-26T19:08:32.742Z,33.90
2022-11-26T19:13:36.863Z,34.80
2022-11-26T19:18:41.570Z,35.90
2022-11-26T19:23:45.017Z,33.40
2022-11-26T19:28:48.934Z,38.60
2022-11-26T19:33:54.613Z,38.80
2022-11-26T19:38:59.555Z,37.30
2022-11-26T19:44:07.307Z,42.40
2022-11-26T19:49:12.736Z,42.10
2022-11-26T19:54:16.143Z,39.20
2022-11-26T19:59:20.067Z,42.30
2022-11-26T20:04:24.039Z,43.90
2022-11-26T20:09:27.406Z,38.40
2022-11-26T20:14:31.025Z,34.70
2022-11-26T20:19:34.348Z,37.50
2022-11-26T20:24:37.852Z,30.10
2022-11-26T20:29:41.434Z,35.40
2022-11-26T20:34:45.599Z,39.50
2022-11-26T20:39:49.024Z,40.30
2022-11-26T20:44:52.425Z,39.80
2022-11-26T20:49:55.942Z,40.00
2022-11-26T20:54:59.360Z,41.50
2022-11-26T21:00:07.455Z,45.00
2022-11-26T21:05:10.686Z,43.10
2022-11-26T21:10:16.148Z,41.00
2022-11-26T21:15:19.559Z,39.00
2022-11-26T21:20:24.362Z,40.90
2022-11-26T21:25:27.716Z,45.10
2022-11-26T21:30:31.071Z,47.30
2022-11-26T21:35:35.057Z,45.80
2022-11-26T21:40:38.468Z,45.10
2022-11-26T21:45:42.003Z,39.10
2022-11-26T21:50:45.397Z,31.20
2022-11-26T21:55:48.913Z,44.50
2022-11-26T22:00:52.428Z,48.50
2022-11-26T22:05:59.785Z,32.20
2022-11-26T22:11:11.506Z,40.70
2022-11-26T22:16:16.984Z,45.70
2022-11-26T22:21:41.278Z,46.50
2022-11-26T22:26:45.539Z,45.10
2022-11-26T22:31:50.560Z,49.10
2022-11-26T22:36:54.209Z,43.10
2022-11-26T22:41:58.207Z,45.60
2022-11-26T22:47:01.650Z,45.20
2022-11-26T22:52:05.063Z,34.30
2022-11-26T22:57:08.782Z,48.00
2022-11-26T23:02:12.140Z,48.40
2022-11-26T23:07:15.773Z,47.60
2022-11-26T23:12:19.329Z,49.70
2022-11-26T23:17:22.844Z,47.60
2022-11-26T23:22:26.360Z,46.60
2022-11-26T23:27:32.946Z,47.50
2022-11-26T23:32:36.667Z,50.40
2022-11-26T23:37:40.696Z,45.10
2022-11-26T23:42:44.109Z,47.40
2022-11-26T23:47:47.725Z,49.20
2022-11-26T23:52:51.552Z,41.30
2022-11-26T23:57:54.860Z,51.20
